sensor_id;sensor_type;location;lat;lon;timestamp;temperature;humidity
11280;DHT22;5696;50.928;6.960;2022-08-20T05:33:49;20.00;99.90
11280;DHT22;5696;50.928;6.960;2022-08-20T05:36:15;20.00;99.90
11280;DHT22;5696;50.928;6.960;2022-08-20T05:38:41;20.00;99.90
11280;DHT22;5696;50.928;6.960;2022-08-20T05:41:06;20.00;99.90
11280;DHT22;5696;50.928;6.960;2022-08-20T05:43:32;20.00;99.90
11280;DHT22;5696;50.928;6.960;2022-08-20T05:45:59;20.10;99.90
11280;DHT22;5696;50.928;6.960;2022-08-20T05:48:29;20.00;99.90
11280;DHT22;5696;50.928;6.960;2022-08-20T05:50:55;20.00;99.90
11280;DHT22;5696;50.928;6.960;2022-08-20T05:53:22;20.10;99.90
11280;DHT22;5696;50.928;6.960;2022-08-20T05:55:54;20.00;99.90
11280;DHT22;5696;50.928;6.960;2022-08-20T05:58:25;20.00;99.90
11280;DHT22;5696;50.928;6.960;2022-08-20T06:00:53;20.00;99.90
11280;DHT22;5696;50.928;6.960;2022-08-20T06:03:19;20.10;99.90
11280;DHT22;5696;50.928;6.960;2022-08-20T06:06:03;20.10;99.90
11280;DHT22;5696;50.928;6.960;2022-08-20T06:08:30;20.10;99.90
11280;DHT22;5696;50.928;6.960;2022-08-20T06:10:56;20.20;99.90
11280;DHT22;5696;50.928;6.960;2022-08-20T06:13:22;20.20;99.90
11280;DHT22;5696;50.928;6.960;2022-08-20T06:15:48;20.20;99.90
11280;DHT22;5696;50.928;6.960;2022-08-20T06:18:14;20.20;99.90
11280;DHT22;5696;50.928;6.960;2022-08-20T06:20:39;20.00;99.90
11280;DHT22;5696;50.928;6.960;2022-08-20T06:23:05;20.00;99.90
11280;DHT22;5696;50.928;6.960;2022-08-20T06:25:32;19.90;99.90
11280;DHT22;5696;50.928;6.960;2022-08-20T06:28:00;20.00;99.90
11280;DHT22;5696;50.928;6.960;2022-08-20T06:30:26;20.00;99.90
11280;DHT22;5696;50.928;6.960;2022-08-20T06:32:51;20.00;99.90
11280;DHT22;5696;50.928;6.960;2022-08-20T06:35:17;20.00;99.90
11280;DHT22;5696;50.928;6.960;2022-08-20T06:37:43;20.00;99.90
11280;DHT22;5696;50.928;6.960;2022-08-20T06:40:15;20.00;99.90
11280;DHT22;5696;50.928;6.960;2022-08-20T06:42:41;20.00;99.90
11280;DHT22;5696;50.928;6.960;2022-08-20T06:45:12;20.10;99.90
11280;DHT22;5696;50.928;6.960;2022-08-20T06:47:40;20.30;99.90
11280;DHT22;5696;50.928;6.960;2022-08-20T06:50:08;20.40;99.90
11280;DHT22;5696;50.928;6.960;2022-08-20T06:52:34;20.40;99.90
11280;DHT22;5696;50.928;6.960;2022-08-20T06:55:02;20.70;99.90
11280;DHT22;5696;50.928;6.960;2022-08-20T06:57:28;20.70;99.90
11280;DHT22;5696;50.928;6.960;2022-08-20T06:59:54;20.80;99.90
11280;DHT22;5696;50.928;6.960;2022-08-20T07:02:20;21.00;99.90
11280;DHT22;5696;50.928;6.960;2022-08-20T07:04:49;21.00;99.90
11280;DHT22;5696;50.928;6.960;2022-08-20T07:07:16;21.00;99.90
11280;DHT22;5696;50.928;6.960;2022-08-20T07:09:42;21.00;99.90
11280;DHT22;5696;50.928;6.960;2022-08-20T07:12:08;20.80;99.90
11280;DHT22;5696;50.928;6.960;2022-08-20T07:14:35;20.80;99.90
11280;DHT22;5696;50.928;6.960;2022-08-20T07:17:04;21.00;99.90
11280;DHT22;5696;50.928;6.960;2022-08-20T07:19:31;21.00;99.90
11280;DHT22;5696;50.928;6.960;2022-08-20T07:21:58;21.10;99.90
11280;DHT22;5696;50.928;6.960;2022-08-20T07:24:23;21.10;99.90
11280;DHT22;5696;50.928;6.960;2022-08-20T07:26:59;21.00;99.90
11280;DHT22;5696;50.928;6.960;2022-08-20T07:29:25;21.20;99.90
11280;DHT22;5696;50.928;6.960;2022-08-20T07:32:11;21.60;99.90
11280;DHT22;5696;50.928;6.960;2022-08-20T07:34:55;21.90;99.90
11280;DHT22;5696;50.928;6.960;2022-08-20T07:37:21;22.10;99.90
11280;DHT22;5696;50.928;6.960;2022-08-20T07:39:48;22.10;99.90
11280;DHT22;5696;50.928;6.960;2022-08-20T07:42:14;22.00;99.90
11280;DHT22;5696;50.928;6.960;2022-08-20T07:44:39;22.30;99.90
11280;DHT22;5696;50.928;6.960;2022-08-20T07:47:05;22.50;99.90
11280;DHT22;5696;50.928;6.960;2022-08-20T07:49:31;22.60;99.90
11280;DHT22;5696;50.928;6.960;2022-08-20T07:52:01;22.80;99.90
11280;DHT22;5696;50.928;6.960;2022-08-20T07:54:26;22.80;99.90
11280;DHT22;5696;50.928;6.960;2022-08-20T07:56:52;22.80;99.90
11280;DHT22;5696;50.928;6.960;2022-08-20T07:59:18;22.80;99.90
11280;DHT22;5696;50.928;6.960;2022-08-20T08:01:46;22.60;99.90
11280;DHT22;5696;50.928;6.960;2022-08-20T08:04:12;22.60;99.90
11280;DHT22;5696;50.928;6.960;2022-08-20T08:06:37;22.60;99.90
11280;DHT22;5696;50.928;6.960;2022-08-20T08:09:12;22.60;99.90
11280;DHT22;5696;50.928;6.960;2022-08-20T08:11:40;22.80;99.90
11280;DHT22;5696;50.928;6.960;2022-08-20T08:14:07;22.90;99.90
11280;DHT22;5696;50.928;6.960;2022-08-20T08:16:35;23.10;99.90
11280;DHT22;5696;50.928;6.960;2022-08-20T08:19:03;23.20;99.90
11280;DHT22;5696;50.928;6.960;2022-08-20T08:21:30;23.30;99.90
11280;DHT22;5696;50.928;6.960;2022-08-20T08:23:56;23.20;99.90
11280;DHT22;5696;50.928;6.960;2022-08-20T08:26:22;23.30;99.90
11280;DHT22;5696;50.928;6.960;2022-08-20T08:28:48;23.10;99.90
11280;DHT22;5696;50.928;6.960;2022-08-20T08:31:14;22.70;99.90
11280;DHT22;5696;50.928;6.960;2022-08-20T08:33:40;22.20;99.90
11280;DHT22;5696;50.928;6.960;2022-08-20T08:36:10;22.00;99.90
11280;DHT22;5696;50.928;6.960;2022-08-20T08:38:39;22.00;99.90
11280;DHT22;5696;50.928;6.960;2022-08-20T08:41:16;22.00;99.90
11280;DHT22;5696;50.928;6.960;2022-08-20T08:43:45;22.20;99.90
11280;DHT22;5696;50.928;6.960;2022-08-20T08:46:12;22.10;99.90
11280;DHT22;5696;50.928;6.960;2022-08-20T08:48:44;21.90;99.90
11280;DHT22;5696;50.928;6.960;2022-08-20T08:51:14;21.70;99.90
11280;DHT22;5696;50.928;6.960;2022-08-20T08:53:49;21.70;99.90
11280;DHT22;5696;50.928;6.960;2022-08-20T08:56:21;22.00;99.90
11280;DHT22;5696;50.928;6.960;2022-08-20T08:58:47;22.40;99.90
11280;DHT22;5696;50.928;6.960;2022-08-20T09:01:16;22.70;99.90
11280;DHT22;5696;50.928;6.960;2022-08-20T09:03:45;22.90;99.90
11280;DHT22;5696;50.928;6.960;2022-08-20T09:06:15;22.70;99.90
11280;DHT22;5696;50.928;6.960;2022-08-20T09:08:50;22.60;99.90
11280;DHT22;5696;50.928;6.960;2022-08-20T09:11:18;22.60;99.90
11280;DHT22;5696;50.928;6.960;2022-08-20T09:13:44;23.00;99.90
11280;DHT22;5696;50.928;6.960;2022-08-20T09:16:11;23.20;99.90
11280;DHT22;5696;50.928;6.960;2022-08-20T09:18:37;23.20;99.90
11280;DHT22;5696;50.928;6.960;2022-08-20T09:21:03;22.90;99.90
11280;DHT22;5696;50.928;6.960;2022-08-20T09:23:29;22.60;99.90
11280;DHT22;5696;50.928;6.960;2022-08-20T09:25:56;22.60;99.90
11280;DHT22;5696;50.928;6.960;2022-08-20T09:28:21;22.60;99.90
11280;DHT22;5696;50.928;6.960;2022-08-20T09:30:47;22.80;99.90
11280;DHT22;5696;50.928;6.960;2022-08-20T09:33:13;23.20;99.90
11280;DHT22;5696;50.928;6.960;2022-08-20T09:35:38;23.00;99.90
11280;DHT22;5696;50.928;6.960;2022-08-20T09:38:05;22.90;99.90
11280;DHT22;5696;50.928;6.960;2022-08-20T09:40:31;22.80;99.90
11280;DHT22;5696;50.928;6.960;2022-08-20T09:42:56;22.60;99.90
11280;DHT22;5696;50.928;6.960;2022-08-20T09:45:23;22.50;99.90
11280;DHT22;5696;50.928;6.960;2022-08-20T09:47:48;22.40;99.90
11280;DHT22;5696;50.928;6.960;2022-08-20T09:50:14;22.40;99.90
11280;DHT22;5696;50.928;6.960;2022-08-20T09:52:42;22.50;99.90
11280;DHT22;5696;50.928;6.960;2022-08-20T09:57:51;22.40;99.90
11280;DHT22;5696;50.928;6.960;2022-08-20T10:00:18;22.30;99.90
11280;DHT22;5696;50.928;6.960;2022-08-20T10:02:44;22.70;99.90
11280;DHT22;5696;50.928;6.960;2022-08-20T10:05:10;22.80;99.90
11280;DHT22;5696;50.928;6.960;2022-08-20T10:07:46;22.70;99.90
11280;DHT22;5696;50.928;6.960;2022-08-20T10:10:13;22.50;99.90
11280;DHT22;5696;50.928;6.960;2022-08-20T10:12:39;22.20;99.90
11280;DHT22;5696;50.928;6.960;2022-08-20T10:15:06;22.20;99.90
11280;DHT22;5696;50.928;6.960;2022-08-20T10:17:36;22.40;99.90
11280;DHT22;5696;50.928;6.960;2022-08-20T10:20:05;22.60;99.90
11280;DHT22;5696;50.928;6.960;2022-08-20T10:22:32;22.80;99.90
11280;DHT22;5696;50.928;6.960;2022-08-20T10:24:58;23.10;99.90
11280;DHT22;5696;50.928;6.960;2022-08-20T10:27:23;23.40;99.90
11280;DHT22;5696;50.928;6.960;2022-08-20T10:29:49;23.70;99.90
11280;DHT22;5696;50.928;6.960;2022-08-20T10:32:15;23.90;99.90
11280;DHT22;5696;50.928;6.960;2022-08-20T10:34:43;23.70;99.90
11280;DHT22;5696;50.928;6.960;2022-08-20T10:37:14;23.70;99.90
11280;DHT22;5696;50.928;6.960;2022-08-20T10:39:40;23.70;99.90
11280;DHT22;5696;50.928;6.960;2022-08-20T10:42:06;23.70;99.90
11280;DHT22;5696;50.928;6.960;2022-08-20T10:44:32;23.40;99.90
11280;DHT22;5696;50.928;6.960;2022-08-20T10:46:57;23.20;99.90
11280;DHT22;5696;50.928;6.960;2022-08-20T10:49:23;23.00;99.90
11280;DHT22;5696;50.928;6.960;2022-08-20T10:51:48;23.30;99.90
11280;DHT22;5696;50.928;6.960;2022-08-20T10:54:14;23.70;99.90
11280;DHT22;5696;50.928;6.960;2022-08-20T10:56:40;23.80;99.90
11280;DHT22;5696;50.928;6.960;2022-08-20T10:59:05;23.90;99.90
11280;DHT22;5696;50.928;6.960;2022-08-20T11:01:31;23.70;99.90
11280;DHT22;5696;50.928;6.960;2022-08-20T11:03:57;23.80;99.90
11280;DHT22;5696;50.928;6.960;2022-08-20T11:06:22;23.90;99.90
11280;DHT22;5696;50.928;6.960;2022-08-20T11:08:48;24.00;99.90
11280;DHT22;5696;50.928;6.960;2022-08-20T11:11:14;24.20;99.90
11280;DHT22;5696;50.928;6.960;2022-08-20T11:13:39;24.50;99.90
11280;DHT22;5696;50.928;6.960;2022-08-20T11:16:05;24.50;99.90
11280;DHT22;5696;50.928;6.960;2022-08-20T11:18:31;24.60;99.90
11280;DHT22;5696;50.928;6.960;2022-08-20T11:20:57;24.60;99.90
11280;DHT22;5696;50.928;6.960;2022-08-20T11:23:23;24.30;99.90
11280;DHT22;5696;50.928;6.960;2022-08-20T11:25:49;24.20;99.90
11280;DHT22;5696;50.928;6.960;2022-08-20T11:28:15;24.60;99.90
11280;DHT22;5696;50.928;6.960;2022-08-20T11:30:41;25.10;99.90
11280;DHT22;5696;50.928;6.960;2022-08-20T11:33:06;25.10;99.90
11280;DHT22;5696;50.928;6.960;2022-08-20T11:35:34;25.00;99.90
11280;DHT22;5696;50.928;6.960;2022-08-20T11:38:05;24.90;99.90
11280;DHT22;5696;50.928;6.960;2022-08-20T11:40:31;24.50;99.90
11280;DHT22;5696;50.928;6.960;2022-08-20T11:42:57;24.70;99.90
11280;DHT22;5696;50.928;6.960;2022-08-20T11:45:23;25.00;99.90
11280;DHT22;5696;50.928;6.960;2022-08-20T11:47:48;25.30;99.90
11280;DHT22;5696;50.928;6.960;2022-08-20T11:50:18;25.40;99.90
11280;DHT22;5696;50.928;6.960;2022-08-20T11:52:44;25.20;99.90
11280;DHT22;5696;50.928;6.960;2022-08-20T11:55:11;25.00;99.90
11280;DHT22;5696;50.928;6.960;2022-08-20T11:57:41;25.00;99.90
11280;DHT22;5696;50.928;6.960;2022-08-20T12:00:09;24.60;99.90
11280;DHT22;5696;50.928;6.960;2022-08-20T12:02:36;24.70;99.90
11280;DHT22;5696;50.928;6.960;2022-08-20T12:05:02;24.60;99.90
11280;DHT22;5696;50.928;6.960;2022-08-20T12:07:28;24.70;99.90
11280;DHT22;5696;50.928;6.960;2022-08-20T12:09:54;24.90;99.90
11280;DHT22;5696;50.928;6.960;2022-08-20T12:12:20;25.30;99.90
11280;DHT22;5696;50.928;6.960;2022-08-20T12:14:49;25.20;99.90
11280;DHT22;5696;50.928;6.960;2022-08-20T12:17:22;24.90;99.90
11280;DHT22;5696;50.928;6.960;2022-08-20T12:19:50;25.00;99.90
11280;DHT22;5696;50.928;6.960;2022-08-20T12:22:16;24.90;99.90
11280;DHT22;5696;50.928;6.960;2022-08-20T12:24:42;24.40;99.90
11280;DHT22;5696;50.928;6.960;2022-08-20T12:27:09;24.40;99.90
11280;DHT22;5696;50.928;6.960;2022-08-20T12:29:37;24.10;99.90
11280;DHT22;5696;50.928;6.960;2022-08-20T12:32:13;24.00;99.90
11280;DHT22;5696;50.928;6.960;2022-08-20T12:34:41;24.10;99.90
11280;DHT22;5696;50.928;6.960;2022-08-20T12:37:13;23.90;99.90
11280;DHT22;5696;50.928;6.960;2022-08-20T12:39:43;23.90;99.90
11280;DHT22;5696;50.928;6.960;2022-08-20T12:42:09;23.90;99.90
11280;DHT22;5696;50.928;6.960;2022-08-20T12:44:36;24.00;99.90
11280;DHT22;5696;50.928;6.960;2022-08-20T12:49:51;24.50;99.90
11280;DHT22;5696;50.928;6.960;2022-08-20T12:52:19;24.30;99.90
11280;DHT22;5696;50.928;6.960;2022-08-20T12:54:45;24.20;99.90
11280;DHT22;5696;50.928;6.960;2022-08-20T12:59:57;24.90;99.90
11280;DHT22;5696;50.928;6.960;2022-08-20T13:02:23;25.20;99.90
11280;DHT22;5696;50.928;6.960;2022-08-20T13:04:49;24.80;99.90
11280;DHT22;5696;50.928;6.960;2022-08-20T13:07:16;24.80;99.90
11280;DHT22;5696;50.928;6.960;2022-08-20T13:09:42;24.60;99.90
11280;DHT22;5696;50.928;6.960;2022-08-20T13:12:09;24.90;99.90
11280;DHT22;5696;50.928;6.960;2022-08-20T13:14:36;25.00;99.90
11280;DHT22;5696;50.928;6.960;2022-08-20T13:17:02;25.00;99.90
11280;DHT22;5696;50.928;6.960;2022-08-20T13:19:29;25.40;99.90
11280;DHT22;5696;50.928;6.960;2022-08-20T13:21:55;25.00;99.90
11280;DHT22;5696;50.928;6.960;2022-08-20T13:24:21;25.00;99.90
11280;DHT22;5696;50.928;6.960;2022-08-20T13:26:47;25.00;99.90
11280;DHT22;5696;50.928;6.960;2022-08-20T13:29:15;24.80;99.90
11280;DHT22;5696;50.928;6.960;2022-08-20T13:31:41;24.90;99.90
11280;DHT22;5696;50.928;6.960;2022-08-20T13:34:07;25.00;99.90
11280;DHT22;5696;50.928;6.960;2022-08-20T13:36:34;25.10;99.90
11280;DHT22;5696;50.928;6.960;2022-08-20T13:39:01;24.80;99.90
11280;DHT22;5696;50.928;6.960;2022-08-20T13:41:26;25.00;99.90
11280;DHT22;5696;50.928;6.960;2022-08-20T13:43:52;24.90;99.90
11280;DHT22;5696;50.928;6.960;2022-08-20T13:46:27;24.80;99.90
11280;DHT22;5696;50.928;6.960;2022-08-20T13:48:52;24.70;99.90
11280;DHT22;5696;50.928;6.960;2022-08-20T13:51:18;24.90;99.90
11280;DHT22;5696;50.928;6.960;2022-08-20T13:53:43;25.10;99.90
11280;DHT22;5696;50.928;6.960;2022-08-20T13:56:19;25.00;99.90
11280;DHT22;5696;50.928;6.960;2022-08-20T13:58:45;24.90;99.90
11280;DHT22;5696;50.928;6.960;2022-08-20T14:01:11;25.10;99.90
11280;DHT22;5696;50.928;6.960;2022-08-20T14:03:37;25.40;99.90
11280;DHT22;5696;50.928;6.960;2022-08-20T14:06:04;25.60;99.90
11280;DHT22;5696;50.928;6.960;2022-08-20T14:08:29;25.70;99.90
11280;DHT22;5696;50.928;6.960;2022-08-20T14:10:55;25.70;99.60
11280;DHT22;5696;50.928;6.960;2022-08-20T14:13:23;25.60;98.80
11280;DHT22;5696;50.928;6.960;2022-08-20T14:15:50;25.90;97.70
11280;DHT22;5696;50.928;6.960;2022-08-20T14:18:16;25.80;96.90
11280;DHT22;5696;50.928;6.960;2022-08-20T14:20:42;25.70;97.30
11280;DHT22;5696;50.928;6.960;2022-08-20T14:23:08;25.50;96.20
11280;DHT22;5696;50.928;6.960;2022-08-20T14:25:34;25.50;96.20
11280;DHT22;5696;50.928;6.960;2022-08-20T14:28:12;25.50;96.30
11280;DHT22;5696;50.928;6.960;2022-08-20T14:30:38;25.50;93.60
11280;DHT22;5696;50.928;6.960;2022-08-20T14:33:04;25.30;93.80
11280;DHT22;5696;50.928;6.960;2022-08-20T14:35:30;25.50;93.40
11280;DHT22;5696;50.928;6.960;2022-08-20T14:37:56;25.60;93.40
11280;DHT22;5696;50.928;6.960;2022-08-20T14:40:24;25.70;93.70
11280;DHT22;5696;50.928;6.960;2022-08-20T14:42:50;25.70;94.10
11280;DHT22;5696;50.928;6.960;2022-08-20T14:45:16;25.70;93.50
11280;DHT22;5696;50.928;6.960;2022-08-20T14:47:54;25.80;93.20
11280;DHT22;5696;50.928;6.960;2022-08-20T14:50:32;25.80;93.10
11280;DHT22;5696;50.928;6.960;2022-08-20T14:52:59;25.80;92.90
11280;DHT22;5696;50.928;6.960;2022-08-20T14:55:28;25.70;92.30
11280;DHT22;5696;50.928;6.960;2022-08-20T14:57:54;25.80;90.30
11280;DHT22;5696;50.928;6.960;2022-08-20T15:00:24;25.60;89.10
11280;DHT22;5696;50.928;6.960;2022-08-20T15:02:50;25.60;89.80
11280;DHT22;5696;50.928;6.960;2022-08-20T15:05:15;25.70;90.20
11280;DHT22;5696;50.928;6.960;2022-08-20T15:07:45;25.60;90.60
11280;DHT22;5696;50.928;6.960;2022-08-20T15:10:29;25.60;90.50
11280;DHT22;5696;50.928;6.960;2022-08-20T15:12:55;25.40;90.70
11280;DHT22;5696;50.928;6.960;2022-08-20T15:15:22;25.50;91.30
11280;DHT22;5696;50.928;6.960;2022-08-20T15:17:51;25.50;90.90
11280;DHT22;5696;50.928;6.960;2022-08-20T15:20:19;25.60;88.50
11280;DHT22;5696;50.928;6.960;2022-08-20T15:22:45;25.70;87.80
11280;DHT22;5696;50.928;6.960;2022-08-20T15:25:13;25.90;86.20
11280;DHT22;5696;50.928;6.960;2022-08-20T15:27:39;25.90;84.80
11280;DHT22;5696;50.928;6.960;2022-08-20T15:30:07;25.80;83.00
11280;DHT22;5696;50.928;6.960;2022-08-20T15:32:34;25.80;80.90
11280;DHT22;5696;50.928;6.960;2022-08-20T15:34:59;25.60;78.80
11280;DHT22;5696;50.928;6.960;2022-08-20T15:37:25;25.50;78.20
11280;DHT22;5696;50.928;6.960;2022-08-20T15:39:52;25.40;75.80
11280;DHT22;5696;50.928;6.960;2022-08-20T15:42:19;25.40;74.10
11280;DHT22;5696;50.928;6.960;2022-08-20T15:44:46;25.40;73.10
11280;DHT22;5696;50.928;6.960;2022-08-20T15:49:41;25.50;73.90
11280;DHT22;5696;50.928;6.960;2022-08-20T15:52:07;25.30;74.40
11280;DHT22;5696;50.928;6.960;2022-08-20T15:54:34;25.40;74.90
11280;DHT22;5696;50.928;6.960;2022-08-20T16:05:37;25.40;74.50
11280;DHT22;5696;50.928;6.960;2022-08-20T16:08:21;25.40;73.60
11280;DHT22;5696;50.928;6.960;2022-08-20T16:16:13;25.40;74.60
11280;DHT22;5696;50.928;6.960;2022-08-20T16:18:40;25.40;74.80
11280;DHT22;5696;50.928;6.960;2022-08-20T16:21:09;25.30;76.40
11280;DHT22;5696;50.928;6.960;2022-08-20T16:23:38;25.40;77.80
11280;DHT22;5696;50.928;6.960;2022-08-20T16:26:30;25.40;78.30
11280;DHT22;5696;50.928;6.960;2022-08-20T16:29:12;25.30;78.10
11280;DHT22;5696;50.928;6.960;2022-08-20T16:31:59;25.30;78.00
11280;DHT22;5696;50.928;6.960;2022-08-20T16:34:32;25.30;78.10
11280;DHT22;5696;50.928;6.960;2022-08-20T16:37:07;25.30;78.30
11280;DHT22;5696;50.928;6.960;2022-08-20T16:39:59;25.30;79.30
11280;DHT22;5696;50.928;6.960;2022-08-20T16:42:32;25.30;80.30
11280;DHT22;5696;50.928;6.960;2022-08-20T16:45:02;25.40;80.50
11280;DHT22;5696;50.928;6.960;2022-08-20T16:47:32;25.30;80.20
11280;DHT22;5696;50.928;6.960;2022-08-20T16:52:34;25.30;80.40
11280;DHT22;5696;50.928;6.960;2022-08-20T16:55:00;25.20;79.90
11280;DHT22;5696;50.928;6.960;2022-08-20T16:57:26;25.00;80.50
11280;DHT22;5696;50.928;6.960;2022-08-20T17:00:09;25.00;81.50
11280;DHT22;5696;50.928;6.960;2022-08-20T17:05:21;25.00;77.60
11280;DHT22;5696;50.928;6.960;2022-08-20T17:07:53;24.90;76.80
11280;DHT22;5696;50.928;6.960;2022-08-20T17:10:25;24.90;76.40
11280;DHT22;5696;50.928;6.960;2022-08-20T17:12:57;24.90;77.00
11280;DHT22;5696;50.928;6.960;2022-08-20T17:15:27;24.80;77.20
11280;DHT22;5696;50.928;6.960;2022-08-20T17:17:54;24.70;77.40
11280;DHT22;5696;50.928;6.960;2022-08-20T17:20:22;24.70;77.70
11280;DHT22;5696;50.928;6.960;2022-08-20T17:23:08;24.60;78.50
11280;DHT22;5696;50.928;6.960;2022-08-20T17:25:36;24.60;79.00
11280;DHT22;5696;50.928;6.960;2022-08-20T17:28:19;24.60;79.10
11280;DHT22;5696;50.928;6.960;2022-08-20T17:30:46;24.60;79.50
11280;DHT22;5696;50.928;6.960;2022-08-20T17:33:34;24.50;80.20
11280;DHT22;5696;50.928;6.960;2022-08-20T17:36:10;24.50;80.80
11280;DHT22;5696;50.928;6.960;2022-08-20T17:38:57;24.40;81.80
11280;DHT22;5696;50.928;6.960;2022-08-20T17:41:34;24.30;83.00
11280;DHT22;5696;50.928;6.960;2022-08-20T17:44:16;24.20;83.90
11280;DHT22;5696;50.928;6.960;2022-08-20T17:46:44;24.20;84.80
11280;DHT22;5696;50.928;6.960;2022-08-20T17:49:18;24.10;85.70
11280;DHT22;5696;50.928;6.960;2022-08-20T17:51:51;24.10;86.50
11280;DHT22;5696;50.928;6.960;2022-08-20T17:54:29;24.00;86.20
11280;DHT22;5696;50.928;6.960;2022-08-20T17:57:08;24.00;87.50
11280;DHT22;5696;50.928;6.960;2022-08-20T17:59:40;23.90;87.70
11280;DHT22;5696;50.928;6.960;2022-08-20T18:02:09;23.90;88.20
11280;DHT22;5696;50.928;6.960;2022-08-20T18:04:35;23.90;89.20
11280;DHT22;5696;50.928;6.960;2022-08-20T18:09:47;23.80;89.90
11280;DHT22;5696;50.928;6.960;2022-08-20T18:15:13;23.70;90.60
11280;DHT22;5696;50.928;6.960;2022-08-20T18:23:22;23.50;91.60
11280;DHT22;5696;50.928;6.960;2022-08-20T18:25:53;23.50;91.90
11280;DHT22;5696;50.928;6.960;2022-08-20T18:28:35;23.40;92.00
11280;DHT22;5696;50.928;6.960;2022-08-20T18:31:03;23.40;92.40
11280;DHT22;5696;50.928;6.960;2022-08-20T18:33:37;23.30;92.90
11280;DHT22;5696;50.928;6.960;2022-08-20T18:36:28;23.30;92.90
11280;DHT22;5696;50.928;6.960;2022-08-20T18:39:08;23.20;93.30
11280;DHT22;5696;50.928;6.960;2022-08-20T18:41:40;23.30;93.20
11280;DHT22;5696;50.928;6.960;2022-08-20T18:47:05;23.10;94.00
11280;DHT22;5696;50.928;6.960;2022-08-20T18:49:37;23.00;94.50
11280;DHT22;5696;50.928;6.960;2022-08-20T18:52:24;22.90;95.00
11280;DHT22;5696;50.928;6.960;2022-08-20T18:54:59;22.80;95.50
11280;DHT22;5696;50.928;6.960;2022-08-20T18:57:29;22.80;96.00
11280;DHT22;5696;50.928;6.960;2022-08-20T19:00:14;22.70;96.20
11280;DHT22;5696;50.928;6.960;2022-08-20T19:03:15;22.70;96.50
11280;DHT22;5696;50.928;6.960;2022-08-20T19:08:14;22.50;97.50
11280;DHT22;5696;50.928;6.960;2022-08-20T19:10:48;22.40;97.80
11280;DHT22;5696;50.928;6.960;2022-08-20T19:18:57;22.30;99.10
11280;DHT22;5696;50.928;6.960;2022-08-20T19:21:30;22.30;99.80
11280;DHT22;5696;50.928;6.960;2022-08-20T19:24:01;22.20;99.90
11280;DHT22;5696;50.928;6.960;2022-08-20T19:26:29;22.20;99.90
11280;DHT22;5696;50.928;6.960;2022-08-20T19:29:06;22.10;99.90
11280;DHT22;5696;50.928;6.960;2022-08-20T19:31:34;22.10;99.90
11280;DHT22;5696;50.928;6.960;2022-08-20T19:36:29;22.00;99.90
11280;DHT22;5696;50.928;6.960;2022-08-20T19:38:59;22.00;99.90
11280;DHT22;5696;50.928;6.960;2022-08-20T19:41:33;22.00;99.90
11280;DHT22;5696;50.928;6.960;2022-08-20T19:44:00;21.90;99.90
11280;DHT22;5696;50.928;6.960;2022-08-20T19:46:34;21.90;99.90
11280;DHT22;5696;50.928;6.960;2022-08-20T19:49:12;21.90;99.90
11280;DHT22;5696;50.928;6.960;2022-08-20T19:54:21;21.80;99.90
11280;DHT22;5696;50.928;6.960;2022-08-20T19:56:47;21.70;99.90
11280;DHT22;5696;50.928;6.960;2022-08-20T19:59:19;21.70;99.90
11280;DHT22;5696;50.928;6.960;2022-08-20T20:01:55;21.60;99.90
11280;DHT22;5696;50.928;6.960;2022-08-20T20:04:26;21.70;99.90
11280;DHT22;5696;50.928;6.960;2022-08-20T20:06:52;21.60;99.90
11280;DHT22;5696;50.928;6.960;2022-08-20T20:09:24;21.60;99.90
11280;DHT22;5696;50.928;6.960;2022-08-20T20:12:09;21.60;99.90
11280;DHT22;5696;50.928;6.960;2022-08-20T20:14:37;21.60;99.90
11280;DHT22;5696;50.928;6.960;2022-08-20T20:17:06;21.50;99.90
11280;DHT22;5696;50.928;6.960;2022-08-20T20:19:53;21.50;99.90
11280;DHT22;5696;50.928;6.960;2022-08-20T20:25:37;21.50;99.90
11280;DHT22;5696;50.928;6.960;2022-08-20T20:28:13;21.50;99.90
11280;DHT22;5696;50.928;6.960;2022-08-20T20:30:41;21.40;99.90
11280;DHT22;5696;50.928;6.960;2022-08-20T20:33:34;21.40;99.90
11280;DHT22;5696;50.928;6.960;2022-08-20T20:36:12;21.40;99.90
11280;DHT22;5696;50.928;6.960;2022-08-20T20:39:01;21.30;99.90
11280;DHT22;5696;50.928;6.960;2022-08-20T20:41:31;21.30;99.90
11280;DHT22;5696;50.928;6.960;2022-08-20T20:44:16;21.30;99.90
11280;DHT22;5696;50.928;6.960;2022-08-20T20:46:45;21.30;99.90
11280;DHT22;5696;50.928;6.960;2022-08-20T20:49:23;21.20;99.90
11280;DHT22;5696;50.928;6.960;2022-08-20T20:52:04;21.20;99.90
11280;DHT22;5696;50.928;6.960;2022-08-20T20:57:02;21.10;99.90
11280;DHT22;5696;50.928;6.960;2022-08-20T20:59:32;21.10;99.90
11280;DHT22;5696;50.928;6.960;2022-08-20T21:01:58;21.10;99.90
11280;DHT22;5696;50.928;6.960;2022-08-20T21:04:25;21.10;99.90
11280;DHT22;5696;50.928;6.960;2022-08-20T21:06:54;21.00;99.90
11280;DHT22;5696;50.928;6.960;2022-08-20T21:09:21;21.00;99.90
11280;DHT22;5696;50.928;6.960;2022-08-20T21:11:48;21.00;99.90
11280;DHT22;5696;50.928;6.960;2022-08-20T21:14:14;21.00;99.90
11280;DHT22;5696;50.928;6.960;2022-08-20T21:16:41;20.90;99.90
11280;DHT22;5696;50.928;6.960;2022-08-20T21:19:07;21.00;99.90
11280;DHT22;5696;50.928;6.960;2022-08-20T21:21:33;21.00;99.90
11280;DHT22;5696;50.928;6.960;2022-08-20T21:23:58;20.90;99.90
11280;DHT22;5696;50.928;6.960;2022-08-20T21:26:26;20.90;99.90
11280;DHT22;5696;50.928;6.960;2022-08-20T21:28:52;21.00;99.90
11280;DHT22;5696;50.928;6.960;2022-08-20T21:31:17;21.00;99.90
11280;DHT22;5696;50.928;6.960;2022-08-20T21:33:43;21.00;99.90
11280;DHT22;5696;50.928;6.960;2022-08-20T21:36:09;20.90;99.90
11280;DHT22;5696;50.928;6.960;2022-08-20T21:38:35;20.90;99.90
11280;DHT22;5696;50.928;6.960;2022-08-20T21:41:01;20.90;99.90
11280;DHT22;5696;50.928;6.960;2022-08-20T21:43:27;20.90;99.90
11280;DHT22;5696;50.928;6.960;2022-08-20T21:45:52;20.80;99.90
11280;DHT22;5696;50.928;6.960;2022-08-20T21:48:18;20.70;99.90
11280;DHT22;5696;50.928;6.960;2022-08-20T21:50:44;20.60;99.90
11280;DHT22;5696;50.928;6.960;2022-08-20T21:53:10;20.60;99.90
11280;DHT22;5696;50.928;6.960;2022-08-20T21:55:37;20.60;99.90
11280;DHT22;5696;50.928;6.960;2022-08-20T21:58:03;20.50;99.90
11280;DHT22;5696;50.928;6.960;2022-08-20T22:00:50;20.50;99.90
11280;DHT22;5696;50.928;6.960;2022-08-20T22:03:18;20.40;99.90
11280;DHT22;5696;50.928;6.960;2022-08-20T22:05:44;20.40;99.90
11280;DHT22;5696;50.928;6.960;2022-08-20T22:08:10;20.30;99.90
11280;DHT22;5696;50.928;6.960;2022-08-20T22:10:37;20.40;99.90
11280;DHT22;5696;50.928;6.960;2022-08-20T22:13:03;20.30;99.90
11280;DHT22;5696;50.928;6.960;2022-08-20T22:15:29;20.30;99.90
11280;DHT22;5696;50.928;6.960;2022-08-20T22:17:54;20.20;99.90
11280;DHT22;5696;50.928;6.960;2022-08-20T22:20:20;20.30;99.90
11280;DHT22;5696;50.928;6.960;2022-08-20T22:22:52;20.20;99.90
11280;DHT22;5696;50.928;6.960;2022-08-20T22:25:18;20.10;99.90
11280;DHT22;5696;50.928;6.960;2022-08-20T22:27:43;20.20;99.90
11280;DHT22;5696;50.928;6.960;2022-08-20T22:30:10;20.20;99.90
11280;DHT22;5696;50.928;6.960;2022-08-20T22:32:36;20.20;99.90